sensor_id;sensor_type;location;lat;lon;timestamp;P1;durP1;ratioP1;P2;durP2;ratioP2
16228;SDS011;8222;51.462;12.630;2023-11-22T00:00:06;4.68;;;3.80;;
16228;SDS011;8222;51.462;12.630;2023-11-22T00:02:36;8.68;;;5.22;;
16228;SDS011;8222;51.462;12.630;2023-11-22T00:05:02;8.57;;;5.70;;
16228;SDS011;8222;51.462;12.630;2023-11-22T00:07:28;6.45;;;5.25;;
16228;SDS011;8222;51.462;12.630;2023-11-22T00:09:54;5.53;;;4.30;;
16228;SDS011;8222;51.462;12.630;2023-11-22T00:12:23;7.57;;;5.90;;
16228;SDS011;8222;51.462;12.630;2023-11-22T00:14:49;6.43;;;4.93;;
16228;SDS011;8222;51.462;12.630;2023-11-22T00:17:16;5.00;;;2.97;;
16228;SDS011;8222;51.462;12.630;2023-11-22T00:19:47;5.83;;;4.40;;
16228;SDS011;8222;51.462;12.630;2023-11-22T00:22:14;6.85;;;5.40;;
16228;SDS011;8222;51.462;12.630;2023-11-22T00:24:43;5.27;;;4.43;;
16228;SDS011;8222;51.462;12.630;2023-11-22T00:27:15;6.23;;;5.23;;
16228;SDS011;8222;51.462;12.630;2023-11-22T00:29:46;5.03;;;4.53;;
16228;SDS011;8222;51.462;12.630;2023-11-22T00:32:17;6.88;;;5.03;;
16228;SDS011;8222;51.462;12.630;2023-11-22T00:34:44;7.33;;;6.27;;
16228;SDS011;8222;51.462;12.630;2023-11-22T00:37:12;7.40;;;5.40;;
16228;SDS011;8222;51.462;12.630;2023-11-22T00:39:43;3.90;;;3.57;;
16228;SDS011;8222;51.462;12.630;2023-11-22T00:42:09;8.63;;;4.37;;
16228;SDS011;8222;51.462;12.630;2023-11-22T00:44:35;7.37;;;4.13;;
16228;SDS011;8222;51.462;12.630;2023-11-22T00:47:03;4.90;;;3.63;;
16228;SDS011;8222;51.462;12.630;2023-11-22T00:49:29;6.85;;;5.75;;
16228;SDS011;8222;51.462;12.630;2023-11-22T00:51:54;7.73;;;5.83;;
16228;SDS011;8222;51.462;12.630;2023-11-22T00:54:23;6.93;;;5.30;;
16228;SDS011;8222;51.462;12.630;2023-11-22T00:56:50;7.20;;;4.83;;
16228;SDS011;8222;51.462;12.630;2023-11-22T00:59:15;7.17;;;4.50;;
16228;SDS011;8222;51.462;12.630;2023-11-22T01:01:41;7.38;;;5.72;;
16228;SDS011;8222;51.462;12.630;2023-11-22T01:04:09;8.52;;;5.90;;
16228;SDS011;8222;51.462;12.630;2023-11-22T01:06:35;7.83;;;5.53;;
16228;SDS011;8222;51.462;12.630;2023-11-22T01:09:03;7.22;;;6.13;;
16228;SDS011;8222;51.462;12.630;2023-11-22T01:11:29;6.60;;;4.83;;
16228;SDS011;8222;51.462;12.630;2023-11-22T01:13:54;5.87;;;5.20;;
16228;SDS011;8222;51.462;12.630;2023-11-22T01:16:20;7.60;;;5.88;;
16228;SDS011;8222;51.462;12.630;2023-11-22T01:18:46;7.03;;;5.72;;
16228;SDS011;8222;51.462;12.630;2023-11-22T01:21:12;6.10;;;4.97;;
16228;SDS011;8222;51.462;12.630;2023-11-22T01:23:43;8.67;;;5.50;;
16228;SDS011;8222;51.462;12.630;2023-11-22T01:26:10;6.53;;;5.10;;
16228;SDS011;8222;51.462;12.630;2023-11-22T01:28:35;7.93;;;6.20;;
16228;SDS011;8222;51.462;12.630;2023-11-22T01:31:04;8.57;;;7.03;;
16228;SDS011;8222;51.462;12.630;2023-11-22T01:33:30;7.68;;;5.65;;
16228;SDS011;8222;51.462;12.630;2023-11-22T01:35:57;10.57;;;5.90;;
16228;SDS011;8222;51.462;12.630;2023-11-22T01:38:26;8.27;;;6.23;;
16228;SDS011;8222;51.462;12.630;2023-11-22T01:40:54;7.60;;;6.32;;
16228;SDS011;8222;51.462;12.630;2023-11-22T01:43:20;8.05;;;6.13;;
16228;SDS011;8222;51.462;12.630;2023-11-22T01:45:54;6.50;;;5.27;;
16228;SDS011;8222;51.462;12.630;2023-11-22T01:48:23;7.45;;;5.32;;
16228;SDS011;8222;51.462;12.630;2023-11-22T01:50:49;6.83;;;4.50;;
16228;SDS011;8222;51.462;12.630;2023-11-22T01:53:15;8.20;;;6.57;;
16228;SDS011;8222;51.462;12.630;2023-11-22T01:55:42;10.50;;;7.07;;
16228;SDS011;8222;51.462;12.630;2023-11-22T01:58:09;9.52;;;6.85;;
16228;SDS011;8222;51.462;12.630;2023-11-22T02:01:10;8.87;;;5.83;;
16228;SDS011;8222;51.462;12.630;2023-11-22T02:03:29;9.48;;;7.05;;
16228;SDS011;8222;51.462;12.630;2023-11-22T02:05:57;8.50;;;6.57;;
16228;SDS011;8222;51.462;12.630;2023-11-22T02:08:23;7.40;;;5.87;;
16228;SDS011;8222;51.462;12.630;2023-11-22T02:10:57;7.03;;;5.10;;
16228;SDS011;8222;51.462;12.630;2023-11-22T02:13:25;5.57;;;4.60;;
16228;SDS011;8222;51.462;12.630;2023-11-22T02:15:51;5.73;;;4.13;;
16228;SDS011;8222;51.462;12.630;2023-11-22T02:18:21;8.93;;;7.30;;
16228;SDS011;8222;51.462;12.630;2023-11-22T02:20:52;7.97;;;6.72;;
16228;SDS011;8222;51.462;12.630;2023-11-22T02:23:18;8.05;;;6.45;;
16228;SDS011;8222;51.462;12.630;2023-11-22T02:25:47;6.97;;;5.83;;
16228;SDS011;8222;51.462;12.630;2023-11-22T02:28:23;8.73;;;5.70;;
16228;SDS011;8222;51.462;12.630;2023-11-22T02:30:48;5.20;;;4.50;;
16228;SDS011;8222;51.462;12.630;2023-11-22T02:33:14;9.25;;;6.38;;
16228;SDS011;8222;51.462;12.630;2023-11-22T02:35:39;7.60;;;5.87;;
16228;SDS011;8222;51.462;12.630;2023-11-22T02:38:07;6.83;;;4.90;;
16228;SDS011;8222;51.462;12.630;2023-11-22T02:40:32;7.53;;;5.10;;
16228;SDS011;8222;51.462;12.630;2023-11-22T02:43:00;8.93;;;6.57;;
16228;SDS011;8222;51.462;12.630;2023-11-22T02:45:30;12.00;;;8.05;;
16228;SDS011;8222;51.462;12.630;2023-11-22T02:47:56;8.80;;;7.23;;
16228;SDS011;8222;51.462;12.630;2023-11-22T02:50:26;10.18;;;8.40;;
16228;SDS011;8222;51.462;12.630;2023-11-22T02:52:52;9.73;;;7.18;;
16228;SDS011;8222;51.462;12.630;2023-11-22T02:55:18;8.80;;;6.80;;
16228;SDS011;8222;51.462;12.630;2023-11-22T02:57:46;8.43;;;6.53;;
16228;SDS011;8222;51.462;12.630;2023-11-22T03:00:12;9.17;;;7.20;;
16228;SDS011;8222;51.462;12.630;2023-11-22T03:02:40;10.45;;;7.43;;
16228;SDS011;8222;51.462;12.630;2023-11-22T03:05:11;8.50;;;7.60;;
16228;SDS011;8222;51.462;12.630;2023-11-22T03:07:37;8.02;;;7.10;;
16228;SDS011;8222;51.462;12.630;2023-11-22T03:10:08;6.50;;;4.68;;
16228;SDS011;8222;51.462;12.630;2023-11-22T03:12:34;7.60;;;4.90;;
16228;SDS011;8222;51.462;12.630;2023-11-22T03:15:05;9.70;;;6.80;;
16228;SDS011;8222;51.462;12.630;2023-11-22T03:17:31;7.78;;;6.22;;
16228;SDS011;8222;51.462;12.630;2023-11-22T03:19:59;6.30;;;5.53;;
16228;SDS011;8222;51.462;12.630;2023-11-22T03:22:28;7.30;;;6.13;;
16228;SDS011;8222;51.462;12.630;2023-11-22T03:25:01;9.27;;;5.40;;
16228;SDS011;8222;51.462;12.630;2023-11-22T03:27:30;10.00;;;6.75;;
16228;SDS011;8222;51.462;12.630;2023-11-22T03:29:59;9.90;;;6.95;;
16228;SDS011;8222;51.462;12.630;2023-11-22T03:32:25;7.80;;;6.57;;
16228;SDS011;8222;51.462;12.630;2023-11-22T03:34:56;7.10;;;6.00;;
16228;SDS011;8222;51.462;12.630;2023-11-22T03:37:24;6.80;;;4.03;;
16228;SDS011;8222;51.462;12.630;2023-11-22T03:39:50;8.23;;;4.83;;
16228;SDS011;8222;51.462;12.630;2023-11-22T03:42:16;6.40;;;4.77;;
16228;SDS011;8222;51.462;12.630;2023-11-22T03:44:42;5.20;;;4.60;;
16228;SDS011;8222;51.462;12.630;2023-11-22T03:47:09;7.40;;;6.10;;
16228;SDS011;8222;51.462;12.630;2023-11-22T03:49:38;8.40;;;7.05;;
16228;SDS011;8222;51.462;12.630;2023-11-22T03:52:04;7.53;;;5.03;;
16228;SDS011;8222;51.462;12.630;2023-11-22T03:54:33;8.03;;;7.13;;
16228;SDS011;8222;51.462;12.630;2023-11-22T03:57:02;7.13;;;5.35;;
16228;SDS011;8222;51.462;12.630;2023-11-22T03:59:30;5.77;;;4.97;;
16228;SDS011;8222;51.462;12.630;2023-11-22T04:01:59;6.65;;;5.60;;
16228;SDS011;8222;51.462;12.630;2023-11-22T04:04:24;10.50;;;6.57;;
16228;SDS011;8222;51.462;12.630;2023-11-22T04:06:50;9.63;;;6.90;;
16228;SDS011;8222;51.462;12.630;2023-11-22T04:09:16;7.37;;;5.27;;
16228;SDS011;8222;51.462;12.630;2023-11-22T04:11:45;6.53;;;3.87;;
16228;SDS011;8222;51.462;12.630;2023-11-22T04:14:14;7.97;;;6.10;;
16228;SDS011;8222;51.462;12.630;2023-11-22T04:16:47;7.68;;;6.25;;
16228;SDS011;8222;51.462;12.630;2023-11-22T04:19:13;9.35;;;6.13;;
16228;SDS011;8222;51.462;12.630;2023-11-22T04:21:39;8.98;;;6.45;;
16228;SDS011;8222;51.462;12.630;2023-11-22T04:24:04;8.87;;;6.40;;
16228;SDS011;8222;51.462;12.630;2023-11-22T04:26:31;5.77;;;4.67;;
16228;SDS011;8222;51.462;12.630;2023-11-22T04:28:56;8.20;;;6.03;;
16228;SDS011;8222;51.462;12.630;2023-11-22T04:31:25;7.13;;;5.37;;
16228;SDS011;8222;51.462;12.630;2023-11-22T04:33:51;9.13;;;6.57;;
16228;SDS011;8222;51.462;12.630;2023-11-22T04:36:19;8.73;;;6.07;;
16228;SDS011;8222;51.462;12.630;2023-11-22T04:38:45;8.73;;;6.38;;
16228;SDS011;8222;51.462;12.630;2023-11-22T04:41:14;9.25;;;6.60;;
16228;SDS011;8222;51.462;12.630;2023-11-22T04:43:43;8.35;;;6.18;;
16228;SDS011;8222;51.462;12.630;2023-11-22T04:46:10;8.95;;;6.57;;
16228;SDS011;8222;51.462;12.630;2023-11-22T04:48:37;8.77;;;5.70;;
16228;SDS011;8222;51.462;12.630;2023-11-22T04:51:05;8.30;;;6.57;;
16228;SDS011;8222;51.462;12.630;2023-11-22T04:53:34;10.80;;;7.40;;
16228;SDS011;8222;51.462;12.630;2023-11-22T04:56:02;5.47;;;3.92;;
16228;SDS011;8222;51.462;12.630;2023-11-22T04:58:30;8.98;;;6.93;;
16228;SDS011;8222;51.462;12.630;2023-11-22T05:00:59;10.47;;;5.50;;
16228;SDS011;8222;51.462;12.630;2023-11-22T05:03:24;9.10;;;5.75;;
16228;SDS011;8222;51.462;12.630;2023-11-22T05:05:50;6.95;;;5.75;;
16228;SDS011;8222;51.462;12.630;2023-11-22T05:08:15;7.50;;;5.43;;
16228;SDS011;8222;51.462;12.630;2023-11-22T05:10:43;7.40;;;5.47;;
16228;SDS011;8222;51.462;12.630;2023-11-22T05:13:11;6.07;;;4.90;;
16228;SDS011;8222;51.462;12.630;2023-11-22T05:15:37;7.78;;;5.72;;
16228;SDS011;8222;51.462;12.630;2023-11-22T05:18:05;8.05;;;6.55;;
16228;SDS011;8222;51.462;12.630;2023-11-22T05:20:33;9.35;;;7.47;;
16228;SDS011;8222;51.462;12.630;2023-11-22T05:22:59;9.63;;;6.88;;
16228;SDS011;8222;51.462;12.630;2023-11-22T05:25:27;8.17;;;5.87;;
16228;SDS011;8222;51.462;12.630;2023-11-22T05:27:52;8.83;;;6.17;;
16228;SDS011;8222;51.462;12.630;2023-11-22T05:30:18;8.27;;;5.10;;
16228;SDS011;8222;51.462;12.630;2023-11-22T05:32:43;8.23;;;5.43;;
16228;SDS011;8222;51.462;12.630;2023-11-22T05:35:14;5.68;;;4.97;;
16228;SDS011;8222;51.462;12.630;2023-11-22T05:37:44;9.57;;;6.60;;
16228;SDS011;8222;51.462;12.630;2023-11-22T05:40:09;5.97;;;4.75;;
16228;SDS011;8222;51.462;12.630;2023-11-22T05:42:40;8.68;;;6.05;;
16228;SDS011;8222;51.462;12.630;2023-11-22T05:45:07;8.55;;;6.70;;
16228;SDS011;8222;51.462;12.630;2023-11-22T05:47:36;7.70;;;6.28;;
16228;SDS011;8222;51.462;12.630;2023-11-22T05:50:02;10.48;;;6.70;;
16228;SDS011;8222;51.462;12.630;2023-11-22T05:52:31;8.48;;;6.10;;
16228;SDS011;8222;51.462;12.630;2023-11-22T05:54:59;7.03;;;6.13;;
16228;SDS011;8222;51.462;12.630;2023-11-22T05:57:30;5.30;;;4.40;;
16228;SDS011;8222;51.462;12.630;2023-11-22T05:59:59;9.53;;;6.50;;
16228;SDS011;8222;51.462;12.630;2023-11-22T06:02:24;9.18;;;6.60;;
16228;SDS011;8222;51.462;12.630;2023-11-22T06:04:50;7.20;;;5.03;;
16228;SDS011;8222;51.462;12.630;2023-11-22T06:07:15;8.03;;;6.40;;
16228;SDS011;8222;51.462;12.630;2023-11-22T06:09:48;7.63;;;6.20;;
16228;SDS011;8222;51.462;12.630;2023-11-22T06:12:17;7.60;;;5.70;;
16228;SDS011;8222;51.462;12.630;2023-11-22T06:14:44;6.80;;;4.33;;
16228;SDS011;8222;51.462;12.630;2023-11-22T06:17:12;7.20;;;4.40;;
16228;SDS011;8222;51.462;12.630;2023-11-22T06:19:40;8.23;;;4.50;;
16228;SDS011;8222;51.462;12.630;2023-11-22T06:22:06;8.40;;;4.73;;
16228;SDS011;8222;51.462;12.630;2023-11-22T06:24:34;11.10;;;6.63;;
16228;SDS011;8222;51.462;12.630;2023-11-22T06:27:01;9.55;;;7.10;;
16228;SDS011;8222;51.462;12.630;2023-11-22T06:29:30;8.82;;;6.40;;
16228;SDS011;8222;51.462;12.630;2023-11-22T06:31:58;9.63;;;7.28;;
16228;SDS011;8222;51.462;12.630;2023-11-22T06:34:24;9.02;;;6.50;;
16228;SDS011;8222;51.462;12.630;2023-11-22T06:36:49;7.97;;;5.57;;
16228;SDS011;8222;51.462;12.630;2023-11-22T06:39:20;5.30;;;4.17;;
16228;SDS011;8222;51.462;12.630;2023-11-22T06:41:50;8.60;;;4.93;;
16228;SDS011;8222;51.462;12.630;2023-11-22T06:44:18;10.20;;;6.35;;
16228;SDS011;8222;51.462;12.630;2023-11-22T06:46:43;5.80;;;4.63;;
16228;SDS011;8222;51.462;12.630;2023-11-22T06:49:14;5.60;;;3.50;;
16228;SDS011;8222;51.462;12.630;2023-11-22T06:51:39;5.67;;;4.53;;
16228;SDS011;8222;51.462;12.630;2023-11-22T06:54:07;7.90;;;6.47;;
16228;SDS011;8222;51.462;12.630;2023-11-22T06:56:35;8.07;;;6.53;;
16228;SDS011;8222;51.462;12.630;2023-11-22T06:59:01;8.13;;;6.20;;
16228;SDS011;8222;51.462;12.630;2023-11-22T07:01:27;6.30;;;5.27;;
16228;SDS011;8222;51.462;12.630;2023-11-22T07:03:52;6.40;;;5.23;;
16228;SDS011;8222;51.462;12.630;2023-11-22T07:06:20;6.20;;;5.03;;
16228;SDS011;8222;51.462;12.630;2023-11-22T07:08:47;8.95;;;5.90;;
16228;SDS011;8222;51.462;12.630;2023-11-22T07:11:21;7.82;;;5.38;;
16228;SDS011;8222;51.462;12.630;2023-11-22T07:13:48;8.55;;;6.38;;
16228;SDS011;8222;51.462;12.630;2023-11-22T07:16:13;9.57;;;6.87;;
16228;SDS011;8222;51.462;12.630;2023-11-22T07:18:42;8.63;;;6.38;;
16228;SDS011;8222;51.462;12.630;2023-11-22T07:21:11;8.10;;;6.15;;
16228;SDS011;8222;51.462;12.630;2023-11-22T07:23:39;8.90;;;5.73;;
16228;SDS011;8222;51.462;12.630;2023-11-22T07:26:09;6.05;;;5.03;;
16228;SDS011;8222;51.462;12.630;2023-11-22T07:28:39;8.38;;;6.22;;
16228;SDS011;8222;51.462;12.630;2023-11-22T07:31:06;8.73;;;6.20;;
16228;SDS011;8222;51.462;12.630;2023-11-22T07:33:35;8.57;;;6.30;;
16228;SDS011;8222;51.462;12.630;2023-11-22T07:36:01;7.77;;;6.93;;
16228;SDS011;8222;51.462;12.630;2023-11-22T07:38:30;7.13;;;5.50;;
16228;SDS011;8222;51.462;12.630;2023-11-22T07:41:02;8.20;;;5.30;;
16228;SDS011;8222;51.462;12.630;2023-11-22T07:43:34;8.33;;;5.90;;
16228;SDS011;8222;51.462;12.630;2023-11-22T07:46:06;9.57;;;8.57;;
16228;SDS011;8222;51.462;12.630;2023-11-22T07:48:38;10.88;;;7.90;;
16228;SDS011;8222;51.462;12.630;2023-11-22T07:51:07;9.03;;;7.73;;
16228;SDS011;8222;51.462;12.630;2023-11-22T07:53:36;6.47;;;5.87;;
16228;SDS011;8222;51.462;12.630;2023-11-22T07:56:02;8.23;;;6.15;;
16228;SDS011;8222;51.462;12.630;2023-11-22T07:58:30;10.40;;;7.90;;
16228;SDS011;8222;51.462;12.630;2023-11-22T08:00:59;10.30;;;8.48;;
16228;SDS011;8222;51.462;12.630;2023-11-22T08:03:29;8.23;;;6.50;;
16228;SDS011;8222;51.462;12.630;2023-11-22T08:06:02;10.13;;;7.55;;
16228;SDS011;8222;51.462;12.630;2023-11-22T08:08:28;9.52;;;6.70;;
16228;SDS011;8222;51.462;12.630;2023-11-22T08:10:54;8.20;;;7.05;;
16228;SDS011;8222;51.462;12.630;2023-11-22T08:13:22;9.70;;;7.90;;
16228;SDS011;8222;51.462;12.630;2023-11-22T08:15:51;7.73;;;5.70;;
16228;SDS011;8222;51.462;12.630;2023-11-22T08:18:18;9.25;;;7.90;;
16228;SDS011;8222;51.462;12.630;2023-11-22T08:20:47;11.67;;;6.73;;
16228;SDS011;8222;51.462;12.630;2023-11-22T08:23:15;8.90;;;7.60;;
16228;SDS011;8222;51.462;12.630;2023-11-22T08:25:43;9.87;;;6.97;;
16228;SDS011;8222;51.462;12.630;2023-11-22T08:28:11;10.80;;;8.13;;
16228;SDS011;8222;51.462;12.630;2023-11-22T08:30:36;9.90;;;7.17;;
16228;SDS011;8222;51.462;12.630;2023-11-22T08:33:06;11.60;;;9.15;;
16228;SDS011;8222;51.462;12.630;2023-11-22T08:35:36;9.37;;;6.70;;
16228;SDS011;8222;51.462;12.630;2023-11-22T08:38:05;13.63;;;10.47;;
16228;SDS011;8222;51.462;12.630;2023-11-22T08:40:40;12.47;;;9.20;;
16228;SDS011;8222;51.462;12.630;2023-11-22T08:43:11;14.80;;;11.02;;
16228;SDS011;8222;51.462;12.630;2023-11-22T08:45:37;12.60;;;10.33;;
16228;SDS011;8222;51.462;12.630;2023-11-22T08:48:02;13.87;;;11.83;;
16228;SDS011;8222;51.462;12.630;2023-11-22T08:50:39;13.67;;;10.73;;
16228;SDS011;8222;51.462;12.630;2023-11-22T08:53:05;15.47;;;12.03;;
16228;SDS011;8222;51.462;12.630;2023-11-22T08:55:33;12.73;;;9.60;;
16228;SDS011;8222;51.462;12.630;2023-11-22T08:58:01;14.35;;;11.50;;
16228;SDS011;8222;51.462;12.630;2023-11-22T09:00:27;13.80;;;9.68;;
16228;SDS011;8222;51.462;12.630;2023-11-22T09:02:57;13.67;;;8.13;;
16228;SDS011;8222;51.462;12.630;2023-11-22T09:05:41;11.17;;;7.43;;
16228;SDS011;8222;51.462;12.630;2023-11-22T09:08:10;12.07;;;9.13;;
16228;SDS011;8222;51.462;12.630;2023-11-22T09:10:40;9.97;;;7.63;;
16228;SDS011;8222;51.462;12.630;2023-11-22T09:13:09;14.53;;;8.50;;
16228;SDS011;8222;51.462;12.630;2023-11-22T09:15:44;13.95;;;10.65;;
16228;SDS011;8222;51.462;12.630;2023-11-22T09:18:10;10.57;;;7.60;;
16228;SDS011;8222;51.462;12.630;2023-11-22T09:20:43;13.90;;;11.13;;
16228;SDS011;8222;51.462;12.630;2023-11-22T09:23:15;14.75;;;10.88;;
16228;SDS011;8222;51.462;12.630;2023-11-22T09:25:46;15.30;;;11.48;;
16228;SDS011;8222;51.462;12.630;2023-11-22T09:28:21;13.30;;;11.20;;
16228;SDS011;8222;51.462;12.630;2023-11-22T09:30:49;14.68;;;11.48;;
16228;SDS011;8222;51.462;12.630;2023-11-22T09:33:30;14.30;;;11.63;;
16228;SDS011;8222;51.462;12.630;2023-11-22T09:35:56;15.98;;;12.43;;
16228;SDS011;8222;51.462;12.630;2023-11-22T09:38:25;10.50;;;9.13;;
16228;SDS011;8222;51.462;12.630;2023-11-22T09:40:51;12.90;;;11.25;;
16228;SDS011;8222;51.462;12.630;2023-11-22T09:43:19;11.10;;;9.67;;
16228;SDS011;8222;51.462;12.630;2023-11-22T09:45:50;15.20;;;11.60;;
16228;SDS011;8222;51.462;12.630;2023-11-22T09:48:19;12.27;;;10.45;;
16228;SDS011;8222;51.462;12.630;2023-11-22T09:54:00;13.85;;;10.65;;
16228;SDS011;8222;51.462;12.630;2023-11-22T09:56:31;15.18;;;12.57;;
16228;SDS011;8222;51.462;12.630;2023-11-22T09:58:58;16.33;;;12.50;;
16228;SDS011;8222;51.462;12.630;2023-11-22T10:01:32;14.55;;;10.73;;
16228;SDS011;8222;51.462;12.630;2023-11-22T10:04:06;14.13;;;12.48;;
16228;SDS011;8222;51.462;12.630;2023-11-22T10:06:34;11.30;;;10.10;;
16228;SDS011;8222;51.462;12.630;2023-11-22T10:09:07;11.30;;;9.60;;
16228;SDS011;8222;51.462;12.630;2023-11-22T10:11:34;10.77;;;9.67;;
16228;SDS011;8222;51.462;12.630;2023-11-22T10:14:09;15.48;;;12.05;;
16228;SDS011;8222;51.462;12.630;2023-11-22T10:16:58;13.10;;;10.60;;
16228;SDS011;8222;51.462;12.630;2023-11-22T10:19:27;12.53;;;10.43;;
16228;SDS011;8222;51.462;12.630;2023-11-22T10:22:01;11.30;;;9.03;;
16228;SDS011;8222;51.462;12.630;2023-11-22T10:24:31;13.13;;;10.15;;
16228;SDS011;8222;51.462;12.630;2023-11-22T10:27:01;11.83;;;9.70;;
16228;SDS011;8222;51.462;12.630;2023-11-22T10:29:27;15.77;;;11.50;;
16228;SDS011;8222;51.462;12.630;2023-11-22T10:32:01;12.20;;;9.83;;
16228;SDS011;8222;51.462;12.630;2023-11-22T10:34:38;12.60;;;8.87;;
16228;SDS011;8222;51.462;12.630;2023-11-22T10:37:07;15.52;;;11.63;;
16228;SDS011;8222;51.462;12.630;2023-11-22T10:39:36;12.40;;;10.47;;
16228;SDS011;8222;51.462;12.630;2023-11-22T10:42:15;14.60;;;10.17;;
16228;SDS011;8222;51.462;12.630;2023-11-22T10:44:51;9.50;;;8.43;;
16228;SDS011;8222;51.462;12.630;2023-11-22T10:47:35;9.73;;;8.10;;
16228;SDS011;8222;51.462;12.630;2023-11-22T10:50:13;11.20;;;8.77;;
16228;SDS011;8222;51.462;12.630;2023-11-22T10:56:26;15.65;;;11.55;;
16228;SDS011;8222;51.462;12.630;2023-11-22T10:59:12;14.70;;;11.43;;
16228;SDS011;8222;51.462;12.630;2023-11-22T11:01:56;14.48;;;11.70;;
16228;SDS011;8222;51.462;12.630;2023-11-22T11:04:51;13.30;;;11.38;;
16228;SDS011;8222;51.462;12.630;2023-11-22T11:10:47;14.40;;;11.85;;
16228;SDS011;8222;51.462;12.630;2023-11-22T11:13:23;13.30;;;11.02;;
16228;SDS011;8222;51.462;12.630;2023-11-22T11:15:58;14.43;;;12.88;;
16228;SDS011;8222;51.462;12.630;2023-11-22T11:18:35;15.30;;;12.18;;
16228;SDS011;8222;51.462;12.630;2023-11-22T11:21:20;10.80;;;8.50;;
16228;SDS011;8222;51.462;12.630;2023-11-22T11:24:08;14.27;;;11.25;;
16228;SDS011;8222;51.462;12.630;2023-11-22T11:26:53;17.13;;;10.30;;
16228;SDS011;8222;51.462;12.630;2023-11-22T11:29:36;13.20;;;11.05;;
16228;SDS011;8222;51.462;12.630;2023-11-22T11:32:13;12.45;;;9.68;;
16228;SDS011;8222;51.462;12.630;2023-11-22T12:13:31;12.25;;;9.77;;
16228;SDS011;8222;51.462;12.630;2023-11-22T12:16:23;12.23;;;9.77;;
16228;SDS011;8222;51.462;12.630;2023-11-22T12:19:06;13.80;;;10.48;;
16228;SDS011;8222;51.462;12.630;2023-11-22T12:21:45;11.83;;;10.17;;
16228;SDS011;8222;51.462;12.630;2023-11-22T12:24:22;12.47;;;9.50;;
16228;SDS011;8222;51.462;12.630;2023-11-22T12:27:40;11.82;;;9.25;;
16228;SDS011;8222;51.462;12.630;2023-11-22T13:26:48;12.07;;;10.00;;
16228;SDS011;8222;51.462;12.630;2023-11-22T13:29:16;11.27;;;10.07;;
16228;SDS011;8222;51.462;12.630;2023-11-22T13:32:18;13.02;;;10.23;;
16228;SDS011;8222;51.462;12.630;2023-11-22T13:34:55;12.05;;;10.32;;
16228;SDS011;8222;51.462;12.630;2023-11-22T13:40:39;14.37;;;9.37;;
16228;SDS011;8222;51.462;12.630;2023-11-22T13:43:26;11.40;;;9.32;;
16228;SDS011;8222;51.462;12.630;2023-11-22T22:49:28;8.37;;;7.47;;
16228;SDS011;8222;51.462;12.630;2023-11-22T22:51:55;6.67;;;5.37;;
16228;SDS011;8222;51.462;12.630;2023-11-22T22:54:31;7.40;;;6.55;;
16228;SDS011;8222;51.462;12.630;2023-11-22T22:56:56;6.07;;;5.47;;
16228;SDS011;8222;51.462;12.630;2023-11-22T22:59:28;6.50;;;5.87;;
16228;SDS011;8222;51.462;12.630;2023-11-22T23:01:54;7.47;;;6.25;;
16228;SDS011;8222;51.462;12.630;2023-11-22T23:04:23;8.68;;;6.55;;
16228;SDS011;8222;51.462;12.630;2023-11-22T23:06:51;7.70;;;6.85;;
16228;SDS011;8222;51.462;12.630;2023-11-22T23:09:17;7.43;;;6.63;;
16228;SDS011;8222;51.462;12.630;2023-11-22T23:11:45;7.70;;;6.77;;
16228;SDS011;8222;51.462;12.630;2023-11-22T23:14:11;6.68;;;5.57;;
16228;SDS011;8222;51.462;12.630;2023-11-22T23:16:36;9.20;;;6.95;;
16228;SDS011;8222;51.462;12.630;2023-11-22T23:19:05;7.07;;;6.10;;
16228;SDS011;8222;51.462;12.630;2023-11-22T23:21:36;5.97;;;5.30;;
16228;SDS011;8222;51.462;12.630;2023-11-22T23:24:09;7.90;;;7.10;;
16228;SDS011;8222;51.462;12.630;2023-11-22T23:26:47;8.38;;;5.90;;
16228;SDS011;8222;51.462;12.630;2023-11-22T23:29:15;7.40;;;6.72;;
16228;SDS011;8222;51.462;12.630;2023-11-22T23:31:50;6.33;;;5.73;;
16228;SDS011;8222;51.462;12.630;2023-11-22T23:34:18;7.03;;;5.63;;
16228;SDS011;8222;51.462;12.630;2023-11-22T23:36:44;7.20;;;5.90;;
16228;SDS011;8222;51.462;12.630;2023-11-22T23:39:12;7.63;;;5.45;;
16228;SDS011;8222;51.462;12.630;2023-11-22T23:41:43;7.28;;;6.55;;
16228;SDS011;8222;51.462;12.630;2023-11-22T23:44:19;7.95;;;6.53;;
16228;SDS011;8222;51.462;12.630;2023-11-22T23:46:47;7.80;;;6.10;;
16228;SDS011;8222;51.462;12.630;2023-11-22T23:49:15;5.13;;;4.70;;
16228;SDS011;8222;51.462;12.630;2023-11-22T23:51:41;7.95;;;6.40;;
16228;SDS011;8222;51.462;12.630;2023-11-22T23:54:07;8.47;;;5.77;;
16228;SDS011;8222;51.462;12.630;2023-11-22T23:56:34;5.67;;;5.17;;
16228;SDS011;8222;51.462;12.630;2023-11-22T23:59:00;7.23;;;6.50;;
